Time;durP1;ratioP1;P1;durP2;ratioP2;P2;SDS_P1;SDS_P2;PMS_P1;PMS_P2;Temp;Humidity;BMP_temperature;BMP_pressure;BME280_temperature;BME280_humidity;BME280_pressure;Samples;Min_cycle;Max_cycle;Signal;HPM_P1;HPM_P2
2022/03/18 00:01:20;;;;;;;42.80;26.27;;;;;;;;;;5876548;24;20025;-88
2022/03/18 00:05:41;;;;;;;42.63;27.70;;;;;;;;;;5965327;23;20020;-88
2022/03/18 00:09:41;;;;;;;50.75;29.80;;;;;;;;;;5914262;24;20016;-88
2022/03/18 00:13:23;;;;;;;46.38;28.05;;;;;;;;;;5949184;23;20032;-88
2022/03/18 00:17:29;;;;;;;48.80;31.92;;;;;;;;;;5971755;23;20023;-88
2022/03/18 00:26:02;;;;;;;;;;;;;;;;;;;;;
2022/03/18 00:30:14;;;;;;;43.88;27.08;;;;;;;;;;5923944;23;20027;-88
2022/03/18 00:33:58;;;;;;;48.00;26.17;;;;;;;;;;6227952;23;20019;-88
2022/03/18 00:37:23;;;;;;;;;;;;;;;;;;;;;
2022/03/18 00:46:25;;;;;;;50.90;30.25;;;;;;;;;;5911869;24;20508;-88
2022/03/18 01:13:19;;;;;;;51.60;28.63;;;;;;;;;;6105910;23;20018;-88
2022/03/18 01:32:23;;;;;;;;;;;;;;;;;;;;;
2022/03/18 01:36:27;;;;;;;54.38;30.52;;;;;;;;;;6010255;23;20054;-88
2022/03/18 01:40:54;;;;;;;;;;;;;;;;;;;;;
2022/03/18 01:59:05;;;;;;;;;;;;;;;;;;;;;
2022/03/18 02:02:57;;;;;;;51.28;33.05;;;;;;;;;;5891679;24;20033;-88
2022/03/18 02:07:17;;;;;;;53.65;31.80;;;;;;;;;;5869114;24;20014;-87
2022/03/18 02:11:12;;;;;;;48.45;31.33;;;;;;;;;;5766806;24;20034;-88
2022/03/18 02:14:49;;;;;;;47.08;28.92;;;;;;;;;;5858470;24;20028;-76
2022/03/18 02:17:16;;;;;;;47.15;30.73;;;;;;;;;;5926540;24;20358;-76
2022/03/18 02:19:44;;;;;;;49.90;31.73;;;;;;;;;;5954361;23;20039;-76
2022/03/18 02:22:14;;;;;;;56.95;34.22;;;;;;;;;;6005547;23;20035;-76
2022/03/18 02:24:43;;;;;;;54.95;36.47;;;;;;;;;;6012913;23;20032;-76
2022/03/18 02:43:20;;;;;;;53.03;32.63;;;;;;;;;;6063691;23;20025;-88
2022/03/18 02:46:52;;;;;;;54.45;28.85;;;;;;;;;;6034226;23;20026;-87
2022/03/18 02:49:35;;;;;;;49.05;32.28;;;;;;;;;;6103555;23;20022;-87
2022/03/18 02:52:26;;;;;;;41.67;26.10;;;;;;;;;;6141491;23;20030;-88
2022/03/18 02:55:18;;;;;;;44.47;26.98;;;;;;;;;;6133618;23;20013;-88
2022/03/18 02:58:23;;;;;;;40.25;26.45;;;;;;;;;;6152831;23;20021;-87
2022/03/18 03:01:39;;;;;;;53.45;28.42;;;;;;;;;;6116312;23;20048;-87
2022/03/18 03:17:19;;;;;;;;;;;;;;;;;;;;;
2022/03/18 03:20:20;;;;;;;50.53;33.03;;;;;;;;;;6110111;23;20025;-87
2022/03/18 03:23:21;;;;;;;;;;;;;;;;;;;;;
2022/03/18 03:27:01;;;;;;;54.47;33.40;;;;;;;;;;6073305;23;20037;-88
2022/03/18 03:30:37;;;;;;;49.40;27.17;;;;;;;;;;6076273;23;20081;-88
2022/03/18 03:37:02;;;;;;;;;;;;;;;;;;;;;
2022/03/18 03:40:08;;;;;;;47.55;32.88;;;;;;;;;;6116205;23;20017;-87
2022/03/18 03:46:21;;;;;;;50.15;31.40;;;;;;;;;;6104764;23;20026;-88
2022/03/18 03:49:24;;;;;;;47.97;30.30;;;;;;;;;;6066694;23;20337;-88
2022/03/18 03:52:42;;;;;;;51.50;30.23;;;;;;;;;;6070608;23;20450;-87
2022/03/18 03:55:39;;;;;;;46.70;28.75;;;;;;;;;;6109053;23;20026;-88
2022/03/18 03:59:10;;;;;;;58.10;36.13;;;;;;;;;;6064996;23;20030;-87
2022/03/18 04:03:05;;;;;;;45.67;30.33;;;;;;;;;;6099570;23;20053;-87
2022/03/18 04:06:33;;;;;;;39.67;24.55;;;;;;;;;;6075416;23;20026;-87
2022/03/18 04:09:46;;;;;;;44.72;29.80;;;;;;;;;;6041160;23;20351;-88
2022/03/18 04:16:49;;;;;;;52.40;35.67;;;;;;;;;;6005308;23;20031;-88
2022/03/18 04:23:46;;;;;;;63.92;35.22;;;;;;;;;;6055321;23;20025;-88
2022/03/18 04:27:21;;;;;;;44.58;29.38;;;;;;;;;;6020695;23;20037;-88
2022/03/18 04:31:13;;;;;;;48.88;29.25;;;;;;;;;;6082227;23;20033;-87
2022/03/18 04:34:57;;;;;;;;;;;;;;;;;;;;;
2022/03/18 05:20:47;;;;;;;48.95;30.75;;;;;;;;;;5908081;24;20008;-87
2022/03/18 05:24:52;;;;;;;45.78;33.08;;;;;;;;;;5864331;24;20053;-87
2022/03/18 05:29:36;;;;;;;51.85;32.22;;;;;;;;;;5839806;24;20033;-86
2022/03/18 05:37:41;;;;;;;51.08;28.35;;;;;;;;;;5862094;24;20029;-87
2022/03/18 05:42:08;;;;;;;;;;;;;;;;;;;;;
2022/03/18 05:54:46;;;;;;;43.47;28.80;;;;;;;;;;5861305;24;20037;-86
2022/03/18 05:57:52;;;;;;;55.63;31.65;;;;;;;;;;5935801;23;20028;-83
2022/03/18 06:01:21;;;;;;;49.65;35.28;;;;;;;;;;5981831;23;20035;-84
2022/03/18 06:12:59;;;;;;;53.20;27.95;;;;;;;;;;6106212;23;20028;-87
2022/03/18 06:15:29;;;;;;;43.08;26.80;;;;;;;;;;6075904;23;20018;-83
2022/03/18 06:18:33;;;;;;;56.75;30.90;;;;;;;;;;6156341;23;20022;-88
2022/03/18 06:21:06;;;;;;;71.00;35.33;;;;;;;;;;6126953;23;20485;-82
2022/03/18 06:23:40;;;;;;;55.30;30.17;;;;;;;;;;6152903;23;20017;-86
2022/03/18 06:26:37;;;;;;;52.08;33.38;;;;;;;;;;6103244;23;20033;-87
2022/03/18 06:29:11;;;;;;;52.92;30.27;;;;;;;;;;6131526;23;20025;-74
2022/03/18 06:31:39;;;;;;;49.15;27.25;;;;;;;;;;6112577;23;20013;-74
2022/03/18 06:34:08;;;;;;;47.97;32.30;;;;;;;;;;6152992;23;20025;-76
2022/03/18 06:36:36;;;;;;;42.40;28.17;;;;;;;;;;6159179;23;20452;-75
2022/03/18 06:39:05;;;;;;;43.47;27.25;;;;;;;;;;6162965;23;20017;-75
2022/03/18 06:41:33;;;;;;;44.67;30.30;;;;;;;;;;6155821;23;20041;-75
2022/03/18 06:44:01;;;;;;;43.10;29.55;;;;;;;;;;6162206;23;20021;-75
2022/03/18 06:46:29;;;;;;;51.80;33.80;;;;;;;;;;6162897;23;20014;-75
2022/03/18 06:48:57;;;;;;;53.88;29.80;;;;;;;;;;6157871;23;20021;-75
2022/03/18 06:51:25;;;;;;;52.80;34.17;;;;;;;;;;6163080;23;20341;-75
2022/03/18 06:53:54;;;;;;;45.17;28.90;;;;;;;;;;6154598;23;20055;-76
2022/03/18 06:56:22;;;;;;;52.22;30.88;;;;;;;;;;6160314;23;20022;-75
2022/03/18 06:58:50;;;;;;;44.30;27.23;;;;;;;;;;6162676;23;20022;-75
2022/03/18 07:01:20;;;;;;;43.13;27.73;;;;;;;;;;6156815;23;20022;-75
2022/03/18 07:03:48;;;;;;;50.55;33.90;;;;;;;;;;6163190;23;20021;-75
2022/03/18 07:06:16;;;;;;;44.45;26.73;;;;;;;;;;6152646;23;20468;-75
2022/03/18 07:08:44;;;;;;;39.08;25.65;;;;;;;;;;6158728;23;20028;-75
2022/03/18 07:11:13;;;;;;;38.67;30.83;;;;;;;;;;6160666;23;20430;-75
2022/03/18 07:13:43;;;;;;;40.47;26.88;;;;;;;;;;6155089;23;20032;-75
2022/03/18 07:22:31;;;;;;;52.53;29.27;;;;;;;;;;6125397;23;20028;-86
2022/03/18 07:25:02;;;;;;;39.90;27.17;;;;;;;;;;6133507;23;20034;-86
2022/03/18 07:27:33;;;;;;;46.50;27.70;;;;;;;;;;6079873;23;20576;-86
2022/03/18 07:30:04;;;;;;;44.42;27.65;;;;;;;;;;6102579;23;20484;-85
2022/03/18 07:32:33;;;;;;;34.22;23.60;;;;;;;;;;6078538;23;20036;-85
2022/03/18 07:35:01;;;;;;;41.15;27.88;;;;;;;;;;6103167;23;20460;-85
2022/03/18 07:37:32;;;;;;;35.70;23.97;;;;;;;;;;6108150;23;20021;-86
2022/03/18 07:40:03;;;;;;;26.65;19.67;;;;;;;;;;6138378;23;20009;-85
2022/03/18 07:42:41;;;;;;;34.08;19.67;;;;;;;;;;6105325;23;20326;-85
2022/03/18 07:45:22;;;;;;;25.52;19.42;;;;;;;;;;6104945;23;20381;-85
2022/03/18 07:47:50;;;;;;;27.48;20.17;;;;;;;;;;6115393;23;20017;-86
2022/03/18 07:50:22;;;;;;;32.55;20.27;;;;;;;;;;6104038;23;20440;-85
2022/03/18 07:52:50;;;;;;;;;;;;;;;;;;6111446;23;20449;-86
2022/03/18 07:55:19;;;;;;;37.92;21.20;;;;;;;;;;6114574;23;20313;-85
2022/03/18 07:57:49;;;;;;;31.05;22.85;;;;;;;;;;6130658;23;20036;-85
2022/03/18 08:00:18;;;;;;;33.80;20.58;;;;;;;;;;6137249;23;20030;-85
2022/03/18 08:02:47;;;;;;;41.65;20.20;;;;;;;;;;6138852;23;20032;-85
2022/03/18 08:05:16;;;;;;;23.75;17.05;;;;;;;;;;6132862;23;20021;-85
2022/03/18 08:07:45;;;;;;;22.33;15.25;;;;;;;;;;6104918;23;20021;-85
2022/03/18 08:10:15;;;;;;;27.10;19.00;;;;;;;;;;6127209;23;20030;-85
2022/03/18 08:12:44;;;;;;;27.25;17.05;;;;;;;;;;6103531;23;20052;-85
2022/03/18 08:15:18;;;;;;;32.97;20.67;;;;;;;;;;6140019;23;20434;-85
2022/03/18 08:17:54;;;;;;;19.38;16.05;;;;;;;;;;6079902;23;20021;-85
2022/03/18 08:20:22;;;;;;;30.35;16.65;;;;;;;;;;6103103;23;20025;-85
2022/03/18 08:22:54;;;;;;;26.33;17.13;;;;;;;;;;6104518;23;20014;-85
2022/03/18 08:25:25;;;;;;;26.08;16.48;;;;;;;;;;6128318;23;20468;-86
2022/03/18 08:27:58;;;;;;;25.23;20.08;;;;;;;;;;6081257;23;20028;-86
2022/03/18 08:30:26;;;;;;;22.98;19.00;;;;;;;;;;6102537;23;20330;-85
2022/03/18 08:32:58;;;;;;;36.20;20.05;;;;;;;;;;6079354;23;20044;-85
2022/03/18 08:35:30;;;;;;;26.10;18.95;;;;;;;;;;6138427;23;20025;-85
2022/03/18 08:37:58;;;;;;;35.75;16.13;;;;;;;;;;6102440;23;20555;-85
2022/03/18 08:40:29;;;;;;;31.52;18.85;;;;;;;;;;6080285;23;20472;-85
2022/03/18 08:42:58;;;;;;;28.58;17.45;;;;;;;;;;6079828;23;20475;-85
2022/03/18 08:45:27;;;;;;;29.38;17.05;;;;;;;;;;6127892;23;20026;-85
2022/03/18 08:48:12;;;;;;;29.48;14.88;;;;;;;;;;6117413;23;20433;-85
2022/03/18 08:50:41;;;;;;;30.10;17.33;;;;;;;;;;6060284;23;20026;-85
2022/03/18 08:53:12;;;;;;;23.33;17.00;;;;;;;;;;6126967;23;20018;-76
2022/03/18 08:55:40;;;;;;;23.38;16.25;;;;;;;;;;6137243;23;20013;-77
2022/03/18 08:58:09;;;;;;;22.73;17.35;;;;;;;;;;6154125;23;20044;-76
2022/03/18 09:00:38;;;;;;;22.08;14.20;;;;;;;;;;6160659;23;20468;-76
2022/03/18 09:03:06;;;;;;;18.73;11.75;;;;;;;;;;6164127;23;20326;-76
2022/03/18 09:05:34;;;;;;;28.15;17.90;;;;;;;;;;6156468;23;20462;-76
2022/03/18 09:08:02;;;;;;;25.50;16.77;;;;;;;;;;6162091;23;20018;-76
2022/03/18 09:10:31;;;;;;;26.90;19.27;;;;;;;;;;6163468;23;20013;-76
2022/03/18 09:13:00;;;;;;;23.45;15.80;;;;;;;;;;6154104;23;20028;-76
2022/03/18 09:15:29;;;;;;;21.25;16.98;;;;;;;;;;6136435;23;20036;-76
2022/03/18 09:17:58;;;;;;;29.63;19.42;;;;;;;;;;6154685;23;20029;-76
2022/03/18 09:20:26;;;;;;;25.83;16.35;;;;;;;;;;6160522;23;20017;-76
2022/03/18 09:22:54;;;;;;;25.27;17.65;;;;;;;;;;6163671;23;20017;-76
2022/03/18 09:25:22;;;;;;;33.85;19.90;;;;;;;;;;6156788;23;20030;-76
2022/03/18 09:27:51;;;;;;;24.45;16.42;;;;;;;;;;6163538;23;20013;-76
2022/03/18 09:30:39;;;;;;;20.45;15.25;;;;;;;;;;6159908;23;20032;-78
2022/03/18 09:33:07;;;;;;;34.42;19.45;;;;;;;;;;6157506;23;20361;-76
2022/03/18 09:35:36;;;;;;;30.90;19.90;;;;;;;;;;6163442;23;20021;-76
2022/03/18 09:38:04;;;;;;;26.63;17.75;;;;;;;;;;6153839;23;20610;-76
2022/03/18 09:40:32;;;;;;;29.02;17.85;;;;;;;;;;6160269;23;20029;-76
2022/03/18 09:43:20;;;;;;;22.25;18.33;;;;;;;;;;6163361;23;20014;-76
2022/03/18 09:45:48;;;;;;;23.70;14.20;;;;;;;;;;6155173;23;20417;-76
2022/03/18 09:48:37;;;;;;;31.95;15.65;;;;;;;;;;6160096;23;20026;-76
2022/03/18 09:51:05;;;;;;;23.83;17.27;;;;;;;;;;6163167;23;20017;-76
2022/03/18 09:53:34;;;;;;;25.02;14.98;;;;;;;;;;6126465;23;20036;-76
2022/03/18 09:56:02;;;;;;;31.80;15.18;;;;;;;;;;6161689;23;20014;-76
2022/03/18 09:58:30;;;;;;;26.85;14.45;;;;;;;;;;6162910;23;20364;-76
2022/03/18 10:00:58;;;;;;;25.48;12.75;;;;;;;;;;6158310;23;20075;-76
2022/03/18 10:03:37;;;;;;;20.48;13.82;;;;;;;;;;6163172;23;20732;-76
2022/03/18 10:06:06;;;;;;;26.38;16.60;;;;;;;;;;6153714;23;20021;-76
2022/03/18 10:08:34;;;;;;;22.38;16.35;;;;;;;;;;6159709;23;20029;-76
2022/03/18 10:11:14;;;;;;;15.82;12.93;;;;;;;;;;6162227;23;20016;-76
2022/03/18 10:13:50;;;;;;;25.15;17.90;;;;;;;;;;6155288;23;20033;-77
2022/03/18 10:16:33;;;;;;;24.75;15.70;;;;;;;;;;6134840;23;20036;-76
2022/03/18 10:19:02;;;;;;;21.88;13.98;;;;;;;;;;6162698;23;20041;-76
2022/03/18 10:21:30;;;;;;;25.63;16.75;;;;;;;;;;6156153;23;20034;-76
2022/03/18 10:24:06;;;;;;;28.05;15.10;;;;;;;;;;6162146;23;20457;-80
2022/03/18 10:26:35;;;;;;;26.15;13.95;;;;;;;;;;6163081;23;20013;-80
2022/03/18 10:29:04;;;;;;;19.77;16.65;;;;;;;;;;6101730;23;20036;-80
2022/03/18 10:31:32;;;;;;;22.98;14.18;;;;;;;;;;6102542;23;20018;-80
2022/03/18 10:37:05;;;;;;;19.85;14.60;;;;;;;;;;6129509;23;20028;-82
2022/03/18 10:39:33;;;;;;;;;;;;;;;;;;6078506;23;20024;-81
2022/03/18 10:42:02;;;;;;;25.48;15.55;;;;;;;;;;6126665;23;19921;-81
2022/03/18 10:44:49;;;;;;;25.35;15.27;;;;;;;;;;6160118;23;20017;-82
2022/03/18 10:47:28;;;;;;;19.92;13.55;;;;;;;;;;6078404;23;20040;-81
2022/03/18 10:50:13;;;;;;;16.88;12.40;;;;;;;;;;6127806;23;20025;-81
2022/03/18 10:52:48;;;;;;;18.63;15.73;;;;;;;;;;6133564;23;20021;-81
2022/03/18 10:55:19;;;;;;;17.77;13.32;;;;;;;;;;6163021;23;20021;-80
2022/03/18 10:57:50;;;;;;;18.17;14.27;;;;;;;;;;6154013;23;20029;-81
2022/03/18 11:00:19;;;;;;;22.23;14.80;;;;;;;;;;6109818;23;20029;-81
2022/03/18 11:02:48;;;;;;;12.40;11.10;;;;;;;;;;6161794;23;20018;-81
2022/03/18 11:05:19;;;;;;;22.48;15.77;;;;;;;;;;6130197;23;20033;-81
2022/03/18 11:07:50;;;;;;;23.90;17.17;;;;;;;;;;6161963;23;20024;-81
2022/03/18 11:13:06;;;;;;;18.73;13.30;;;;;;;;;;6125586;23;20021;-81
2022/03/18 11:15:35;;;;;;;18.05;14.77;;;;;;;;;;6161637;23;20013;-81
2022/03/18 11:18:03;;;;;;;22.88;16.17;;;;;;;;;;6152571;23;20032;-81
2022/03/18 11:20:33;;;;;;;27.13;15.68;;;;;;;;;;6158839;23;20028;-81
2022/03/18 11:23:01;;;;;;;22.45;18.27;;;;;;;;;;6136019;23;20013;-81
2022/03/18 11:25:29;;;;;;;27.50;15.77;;;;;;;;;;6100217;23;20101;-82
2022/03/18 11:27:57;;;;;;;20.73;14.52;;;;;;;;;;6101308;23;20341;-82
2022/03/18 11:30:26;;;;;;;19.83;15.90;;;;;;;;;;6125069;23;20032;-81
2022/03/18 11:33:06;;;;;;;24.50;16.77;;;;;;;;;;6100496;23;20033;-83
2022/03/18 11:35:52;;;;;;;24.08;15.95;;;;;;;;;;6136128;23;20018;-82
2022/03/18 11:38:25;;;;;;;19.38;14.15;;;;;;;;;;6076649;23;20029;-82
2022/03/18 11:40:54;;;;;;;18.38;13.98;;;;;;;;;;6125062;23;20021;-82
2022/03/18 11:43:34;;;;;;;22.70;16.27;;;;;;;;;;6101524;23;20437;-83
2022/03/18 11:46:17;;;;;;;26.63;18.60;;;;;;;;;;6077201;23;20026;-82
2022/03/18 11:48:50;;;;;;;20.73;13.45;;;;;;;;;;6132116;23;20028;-82
2022/03/18 11:51:34;;;;;;;32.35;16.33;;;;;;;;;;6078158;23;20014;-82
2022/03/18 11:54:12;;;;;;;27.17;15.52;;;;;;;;;;6077543;23;20480;-81
2022/03/18 11:56:44;;;;;;;20.13;14.93;;;;;;;;;;6076832;23;20026;-80
2022/03/18 11:59:27;;;;;;;15.07;11.40;;;;;;;;;;6135507;23;20010;-80
2022/03/18 12:01:57;;;;;;;16.52;11.60;;;;;;;;;;6076904;23;20022;-80
2022/03/18 12:04:34;;;;;;;19.55;15.30;;;;;;;;;;6077503;23;20024;-81
2022/03/18 12:07:24;;;;;;;26.70;15.60;;;;;;;;;;6161849;23;20340;-81
2022/03/18 12:09:55;;;;;;;23.40;16.00;;;;;;;;;;6152754;23;20046;-81
2022/03/18 12:12:25;;;;;;;21.92;16.05;;;;;;;;;;6154001;23;20026;-81
2022/03/18 12:14:54;;;;;;;18.08;14.68;;;;;;;;;;6135975;23;20302;-81
2022/03/18 12:17:24;;;;;;;21.63;14.98;;;;;;;;;;6155757;23;20349;-81
2022/03/18 12:19:54;;;;;;;23.25;15.65;;;;;;;;;;6135023;23;20025;-80
2022/03/18 12:22:23;;;;;;;26.08;17.52;;;;;;;;;;6077004;23;20026;-81
2022/03/18 12:24:52;;;;;;;21.40;13.85;;;;;;;;;;6102761;23;20475;-81
2022/03/18 12:27:21;;;;;;;18.08;12.57;;;;;;;;;;6162318;23;20358;-80
2022/03/18 12:29:51;;;;;;;25.75;17.13;;;;;;;;;;6153523;23;20040;-81
2022/03/18 12:32:19;;;;;;;22.63;13.75;;;;;;;;;;6161118;23;20373;-80
2022/03/18 12:34:48;;;;;;;30.38;15.00;;;;;;;;;;6163629;23;20024;-80
2022/03/18 12:37:20;;;;;;;24.45;16.88;;;;;;;;;;6157211;23;20034;-79
2022/03/18 12:40:00;;;;;;;19.98;14.90;;;;;;;;;;6126934;23;20026;-79
2022/03/18 12:42:28;;;;;;;23.05;15.85;;;;;;;;;;6125580;23;20480;-80
2022/03/18 12:45:00;;;;;;;22.63;14.48;;;;;;;;;;6158430;23;20022;-79
2022/03/18 12:47:29;;;;;;;;;;;;;;;;;;6163214;23;20017;-80
2022/03/18 12:49:57;;;;;;;17.13;13.00;;;;;;;;;;6154397;23;19928;-81
2022/03/18 12:52:25;;;;;;;26.10;15.15;;;;;;;;;;6101911;23;20030;-81
2022/03/18 12:55:06;;;;;;;22.73;18.05;;;;;;;;;;6112436;23;20014;-85
2022/03/18 12:57:42;;;;;;;23.75;15.80;;;;;;;;;;6087422;23;20026;-83
2022/03/18 13:00:12;;;;;;;20.38;14.82;;;;;;;;;;6161452;23;20017;-77
2022/03/18 13:03:00;;;;;;;25.58;15.05;;;;;;;;;;6153824;23;20013;-76
2022/03/18 13:05:29;;;;;;;23.75;15.80;;;;;;;;;;6155614;23;20029;-79
2022/03/18 13:07:58;;;;;;;26.88;16.60;;;;;;;;;;6162736;23;20024;-77
2022/03/18 13:10:27;;;;;;;20.10;16.35;;;;;;;;;;6151816;23;20037;-78
2022/03/18 13:13:05;;;;;;;23.75;14.60;;;;;;;;;;6153627;23;20029;-77
2022/03/18 13:15:34;;;;;;;21.38;17.00;;;;;;;;;;6163196;23;20024;-77
2022/03/18 13:18:09;;;;;;;28.33;17.27;;;;;;;;;;6153332;23;20037;-76
2022/03/18 13:20:37;;;;;;;18.70;15.23;;;;;;;;;;6159548;23;20029;-76
2022/03/18 13:23:06;;;;;;;22.38;15.88;;;;;;;;;;6163088;23;20334;-77
2022/03/18 13:25:40;;;;;;;20.75;13.77;;;;;;;;;;6153634;23;20037;-78
2022/03/18 13:28:10;;;;;;;17.52;13.32;;;;;;;;;;6134957;23;20032;-79
2022/03/18 13:33:38;;;;;;;23.23;17.27;;;;;;;;;;6156416;23;20025;-76
2022/03/18 13:36:20;;;;;;;20.80;15.13;;;;;;;;;;6161412;23;20325;-77
2022/03/18 13:38:49;;;;;;;20.98;16.55;;;;;;;;;;6162107;23;20017;-78
2022/03/18 13:41:17;;;;;;;17.88;14.90;;;;;;;;;;6156152;23;20026;-79
2022/03/18 13:43:46;;;;;;;27.60;24.13;;;;;;;;;;6102055;23;20187;-80
2022/03/18 13:46:18;;;;;;;17.98;13.50;;;;;;;;;;6153013;23;20029;-77
2022/03/18 13:48:47;;;;;;;19.70;16.40;;;;;;;;;;6125725;23;20029;-79
2022/03/18 13:51:33;;;;;;;22.17;14.82;;;;;;;;;;6126329;23;20365;-78
2022/03/18 13:54:05;;;;;;;16.10;12.75;;;;;;;;;;6127757;23;20354;-78
2022/03/18 13:56:33;;;;;;;18.48;13.50;;;;;;;;;;6132933;23;20026;-78
2022/03/18 13:59:15;;;;;;;21.75;15.25;;;;;;;;;;6125949;23;20017;-78
2022/03/18 14:02:15;;;;;;;22.25;15.77;;;;;;;;;;6128636;23;20026;-78
2022/03/18 14:04:45;;;;;;;23.17;16.15;;;;;;;;;;6049222;23;20037;-78
2022/03/18 14:07:14;;;;;;;21.92;17.17;;;;;;;;;;6162275;23;20014;-77
2022/03/18 14:09:58;;;;;;;22.00;15.73;;;;;;;;;;6154273;23;20025;-77
2022/03/18 14:12:28;;;;;;;21.65;12.95;;;;;;;;;;6154304;23;20022;-78
2022/03/18 14:15:20;;;;;;;21.45;13.52;;;;;;;;;;6162218;23;20014;-78
2022/03/18 14:18:08;;;;;;;26.20;17.10;;;;;;;;;;6129453;23;20029;-78
2022/03/18 14:21:03;;;;;;;22.23;15.07;;;;;;;;;;6101182;23;20465;-78
2022/03/18 14:23:36;;;;;;;18.13;14.13;;;;;;;;;;6112016;23;20014;-78
2022/03/18 14:26:05;;;;;;;20.45;16.90;;;;;;;;;;6152618;23;20029;-78
2022/03/18 14:28:34;;;;;;;18.10;13.95;;;;;;;;;;6125152;23;20021;-77
2022/03/18 14:31:02;;;;;;;21.25;16.13;;;;;;;;;;6161537;23;20014;-77
2022/03/18 14:33:33;;;;;;;20.17;15.98;;;;;;;;;;6124859;23;20476;-77
2022/03/18 14:36:01;;;;;;;20.20;16.77;;;;;;;;;;6101116;23;20014;-78
2022/03/18 14:38:29;;;;;;;18.73;13.90;;;;;;;;;;6135636;23;20017;-77
2022/03/18 14:41:00;;;;;;;22.35;14.35;;;;;;;;;;6156266;23;20029;-78
2022/03/18 14:43:30;;;;;;;17.02;15.35;;;;;;;;;;6161592;23;20021;-77
2022/03/18 14:45:58;;;;;;;29.88;21.23;;;;;;;;;;6152469;23;20465;-78
2022/03/18 14:48:26;;;;;;;19.92;13.50;;;;;;;;;;6125395;23;20026;-76
2022/03/18 14:50:59;;;;;;;13.15;11.10;;;;;;;;;;6161827;23;20017;-76
2022/03/18 14:53:28;;;;;;;16.40;13.45;;;;;;;;;;6125410;23;20021;-83
2022/03/18 14:58:43;;;;;;;19.52;12.63;;;;;;;;;;6135913;23;20025;-81
2022/03/18 15:01:11;;;;;;;22.40;13.93;;;;;;;;;;6156876;23;20076;-82
2022/03/18 15:03:39;;;;;;;16.73;11.05;;;;;;;;;;6136520;23;20032;-80
2022/03/18 15:06:08;;;;;;;15.43;11.05;;;;;;;;;;6127118;23;20026;-82
2022/03/18 15:08:36;;;;;;;12.65;9.40;;;;;;;;;;6077784;23;20026;-83
2022/03/18 15:11:04;;;;;;;11.60;9.38;;;;;;;;;;6134783;23;20575;-83
2022/03/18 15:13:32;;;;;;;17.55;10.15;;;;;;;;;;6129442;23;20036;-82
2022/03/18 15:16:00;;;;;;;14.35;9.38;;;;;;;;;;6125722;23;20013;-82
2022/03/18 15:18:28;;;;;;;15.65;11.45;;;;;;;;;;6111773;23;20010;-82
2022/03/18 15:20:57;;;;;;;29.52;11.07;;;;;;;;;;6101160;23;20026;-81
2022/03/18 15:23:25;;;;;;;15.23;9.48;;;;;;;;;;6136355;23;20017;-83
2022/03/18 15:25:55;;;;;;;17.33;10.95;;;;;;;;;;6150756;23;20040;-82
2022/03/18 15:28:23;;;;;;;14.23;8.57;;;;;;;;;;6158612;23;20029;-81
2022/03/18 15:30:53;;;;;;;16.48;7.65;;;;;;;;;;6123870;23;20014;-82
2022/03/18 15:33:21;;;;;;;11.43;9.65;;;;;;;;;;6124827;23;20021;-83
2022/03/18 15:35:52;;;;;;;14.32;10.90;;;;;;;;;;6110937;23;20025;-81
2022/03/18 15:38:21;;;;;;;13.15;10.93;;;;;;;;;;6150955;23;20028;-81
2022/03/18 15:40:49;;;;;;;9.95;8.68;;;;;;;;;;6156880;23;20033;-81
2022/03/18 15:43:18;;;;;;;21.85;12.48;;;;;;;;;;6125629;23;20452;-81
2022/03/18 15:45:46;;;;;;;11.52;10.32;;;;;;;;;;6153744;23;20025;-83
2022/03/18 15:48:15;;;;;;;18.13;11.07;;;;;;;;;;6100812;23;20488;-82
2022/03/18 15:50:44;;;;;;;16.67;11.07;;;;;;;;;;6135111;23;20389;-84
2022/03/18 15:53:12;;;;;;;16.35;11.10;;;;;;;;;;6103896;23;20025;-83
2022/03/18 15:55:45;;;;;;;18.50;16.15;;;;;;;;;;6110639;23;20036;-84
2022/03/18 15:58:13;;;;;;;12.02;8.98;;;;;;;;;;6126089;23;20463;-83
2022/03/18 16:00:42;;;;;;;15.43;10.88;;;;;;;;;;6078538;23;20040;-83
2022/03/18 16:03:10;;;;;;;19.95;11.45;;;;;;;;;;6137938;23;20022;-84
2022/03/18 16:05:44;;;;;;;11.77;9.50;;;;;;;;;;6079206;23;20504;-83
2022/03/18 16:08:12;;;;;;;10.48;7.85;;;;;;;;;;6111507;23;20441;-83
2022/03/18 16:10:40;;;;;;;11.75;9.82;;;;;;;;;;6073487;23;20029;-76
2022/03/18 16:13:08;;;;;;;12.93;9.05;;;;;;;;;;6072853;23;20030;-76
2022/03/18 16:15:36;;;;;;;12.82;8.43;;;;;;;;;;6151842;23;20025;-76
2022/03/18 16:18:05;;;;;;;19.45;11.32;;;;;;;;;;6128523;23;20338;-76
2022/03/18 16:20:34;;;;;;;12.30;9.52;;;;;;;;;;6126389;23;20040;-77
2022/03/18 16:23:02;;;;;;;19.08;11.82;;;;;;;;;;6163822;23;20014;-76
2022/03/18 16:25:30;;;;;;;11.00;9.45;;;;;;;;;;6156119;23;20038;-76
2022/03/18 16:27:58;;;;;;;10.30;6.45;;;;;;;;;;6162822;23;20040;-76
2022/03/18 16:30:26;;;;;;;12.77;10.60;;;;;;;;;;6127294;23;20040;-76
2022/03/18 16:32:54;;;;;;;12.77;9.75;;;;;;;;;;6158976;23;20026;-76
2022/03/18 16:35:22;;;;;;;11.77;7.53;;;;;;;;;;6137297;23;20017;-76
2022/03/18 16:37:50;;;;;;;10.27;7.68;;;;;;;;;;6154955;23;20029;-76
2022/03/18 16:40:18;;;;;;;13.63;10.30;;;;;;;;;;6160624;23;20424;-76
2022/03/18 16:42:47;;;;;;;26.20;10.13;;;;;;;;;;6163315;23;20017;-76
2022/03/18 16:45:14;;;;;;;13.98;8.55;;;;;;;;;;6157751;23;20107;-76
2022/03/18 16:50:29;;;;;;;15.27;7.65;;;;;;;;;;6151860;23;20381;-76
2022/03/18 16:53:08;;;;;;;16.08;9.45;;;;;;;;;;6158598;23;20025;-76
2022/03/18 16:55:36;;;;;;;13.52;8.48;;;;;;;;;;6162816;23;20013;-76
2022/03/18 16:58:05;;;;;;;14.93;11.10;;;;;;;;;;6153764;23;20030;-76
2022/03/18 17:00:34;;;;;;;13.10;8.43;;;;;;;;;;6160331;23;20034;-76
2022/03/18 17:03:05;;;;;;;17.20;10.63;;;;;;;;;;6163039;23;20021;-76
2022/03/18 17:05:34;;;;;;;15.45;10.82;;;;;;;;;;6155823;23;20553;-76
2022/03/18 17:08:03;;;;;;;15.93;10.77;;;;;;;;;;6161861;23;20017;-76
2022/03/18 17:10:31;;;;;;;20.55;10.25;;;;;;;;;;6162423;23;20017;-76
2022/03/18 17:13:00;;;;;;;13.68;8.63;;;;;;;;;;6100979;23;20029;-76
2022/03/18 17:15:28;;;;;;;15.07;9.25;;;;;;;;;;6161707;23;20018;-76
2022/03/18 17:17:56;;;;;;;14.60;9.63;;;;;;;;;;6153497;23;20310;-76
2022/03/18 17:20:24;;;;;;;14.48;11.60;;;;;;;;;;6159401;23;20029;-76
2022/03/18 17:22:52;;;;;;;15.35;10.63;;;;;;;;;;6137150;23;20013;-76
2022/03/18 17:25:20;;;;;;;12.80;9.15;;;;;;;;;;6155475;23;20033;-76
2022/03/18 17:27:52;;;;;;;13.73;9.80;;;;;;;;;;6136975;23;20018;-76
2022/03/18 17:30:20;;;;;;;21.48;13.40;;;;;;;;;;6152429;23;20025;-77
2022/03/18 17:32:48;;;;;;;18.90;10.27;;;;;;;;;;6159034;23;20021;-77
2022/03/18 17:35:15;;;;;;;19.55;10.93;;;;;;;;;;6162734;23;20009;-80
2022/03/18 17:37:43;;;;;;;15.27;11.02;;;;;;;;;;6129114;23;20074;-80
2022/03/18 17:40:12;;;;;;;18.27;12.65;;;;;;;;;;6126368;23;20314;-82
2022/03/18 17:42:40;;;;;;;17.60;10.75;;;;;;;;;;6137263;23;20014;-80
2022/03/18 17:45:08;;;;;;;15.45;11.05;;;;;;;;;;6158092;23;20025;-80
2022/03/18 17:47:36;;;;;;;19.27;11.90;;;;;;;;;;6126947;23;20018;-81
2022/03/18 17:50:07;;;;;;;17.52;12.80;;;;;;;;;;6092754;23;20021;-79
2022/03/18 17:52:40;;;;;;;19.15;11.77;;;;;;;;;;6055916;23;20030;-81
2022/03/18 17:55:09;;;;;;;14.52;9.30;;;;;;;;;;6112383;23;20468;-81
2022/03/18 17:57:37;;;;;;;21.92;12.70;;;;;;;;;;6065954;23;20353;-81
2022/03/18 18:00:06;;;;;;;16.60;12.18;;;;;;;;;;6078281;23;20021;-81
2022/03/18 18:02:40;;;;;;;16.58;12.18;;;;;;;;;;6079892;23;20013;-81
2022/03/18 18:05:09;;;;;;;19.60;10.52;;;;;;;;;;6077178;23;20472;-81
2022/03/18 18:07:37;;;;;;;14.77;9.70;;;;;;;;;;6124212;23;20016;-82
2022/03/18 18:10:06;;;;;;;15.73;11.18;;;;;;;;;;6103328;23;20029;-80
2022/03/18 18:12:34;;;;;;;17.63;12.13;;;;;;;;;;6154342;23;20026;-80
2022/03/18 18:15:03;;;;;;;15.25;10.25;;;;;;;;;;6163010;23;20333;-80
2022/03/18 18:17:31;;;;;;;11.88;9.82;;;;;;;;;;6155930;23;20033;-79
2022/03/18 18:22:45;;;;;;;15.80;11.60;;;;;;;;;;6101929;23;20024;-81
2022/03/18 18:25:13;;;;;;;19.08;11.70;;;;;;;;;;6101153;23;20465;-81
2022/03/18 18:27:43;;;;;;;21.77;9.57;;;;;;;;;;6072556;23;20022;-81
2022/03/18 18:30:14;;;;;;;15.63;10.98;;;;;;;;;;6116609;23;20794;-81
2022/03/18 18:32:42;;;;;;;14.70;9.15;;;;;;;;;;6077036;23;20022;-81
2022/03/18 18:35:11;;;;;;;17.77;12.45;;;;;;;;;;6135267;23;20024;-81
2022/03/18 18:37:40;;;;;;;15.98;13.23;;;;;;;;;;6101267;23;20033;-81
2022/03/18 18:40:08;;;;;;;17.88;14.20;;;;;;;;;;6134828;23;20472;-81
2022/03/18 18:42:40;;;;;;;19.63;12.05;;;;;;;;;;6101338;23;20018;-81
2022/03/18 18:45:09;;;;;;;15.13;11.00;;;;;;;;;;6077100;23;20326;-81
2022/03/18 18:47:39;;;;;;;14.00;10.23;;;;;;;;;;6089976;23;20021;-81
2022/03/18 18:50:09;;;;;;;24.38;14.48;;;;;;;;;;6100966;23;20437;-81
2022/03/18 18:52:40;;;;;;;17.70;13.57;;;;;;;;;;6124830;23;20026;-81
2022/03/18 18:55:10;;;;;;;18.80;10.63;;;;;;;;;;6077651;23;20357;-81
2022/03/18 18:57:38;;;;;;;17.33;14.13;;;;;;;;;;6052003;23;20022;-80
2022/03/18 19:00:07;;;;;;;14.88;10.63;;;;;;;;;;6134724;23;20017;-81